KLZU

Gwinnett County - Briscoe Field Airport

Lawrenceville, Georgia, USA
METAR KLZU 140656Z AUTO 07012G15KT 10SM OVC012 08/03 A3014 RMK AO2 SLP218 T00830033
Observed Flight Rules
Dec-14 @ 06:56 UTC (44 minutes ago) Marginal Visual Flight Rules
Wind Visibility Clouds
70° at 12 knots
 Gusting to 15 knots
10 miles
  • Overcast at 1,200' AGL
Temperatures Readings
Current 8°C / 46°F
Dewpoint 3°C / 37°F
Humidity 71%
Altimeter 30.14" Hg
Pressure 1021.8 hPa
Elevation 323
METAR KLZU 140656Z AUTO 07012G15KT 10SM OVC012 08/03 A3014 RMK AO2 SLP218 T00830033
Observed Flight Rules
Dec-14 @ 06:56 UTC
(44 minutes ago)
MVFR
Wind Visibility
70° at 12 knots
 Gusting to 15 knots
10 miles
Clouds
  • Overcast at 1,200' AGL
Temperature Dewpoint
8°C / 46°F 3°C / 37°F
Humidity Altimeter Pressure
71% 30.14" Hg 1021.8 hPa